sensor_id;sensor_type;location;lat;lon;timestamp;temperature;humidity
33881;DHT22;20172;47.530;10.256;2022-08-19T00:02:24;17.80;99.90
33881;DHT22;20172;47.530;10.256;2022-08-19T00:04:50;17.70;99.90
33881;DHT22;20172;47.530;10.256;2022-08-19T00:07:18;17.50;99.90
33881;DHT22;20172;47.530;10.256;2022-08-19T00:09:43;17.40;99.90
33881;DHT22;20172;47.530;10.256;2022-08-19T00:12:09;17.20;99.90
33881;DHT22;20172;47.530;10.256;2022-08-19T00:14:35;17.10;99.90
33881;DHT22;20172;47.530;10.256;2022-08-19T00:17:01;17.20;99.90
33881;DHT22;20172;47.530;10.256;2022-08-19T00:19:28;17.30;99.90
33881;DHT22;20172;47.530;10.256;2022-08-19T00:21:53;17.40;99.90
33881;DHT22;20172;47.530;10.256;2022-08-19T00:24:21;17.40;99.90
33881;DHT22;20172;47.530;10.256;2022-08-19T00:26:48;17.60;99.90
33881;DHT22;20172;47.530;10.256;2022-08-19T00:29:14;17.70;99.90
33881;DHT22;20172;47.530;10.256;2022-08-19T00:31:40;17.70;99.90
33881;DHT22;20172;47.530;10.256;2022-08-19T00:34:08;17.80;99.90
33881;DHT22;20172;47.530;10.256;2022-08-19T00:36:34;17.80;99.90
33881;DHT22;20172;47.530;10.256;2022-08-19T00:39:00;17.80;99.90
33881;DHT22;20172;47.530;10.256;2022-08-19T00:41:25;17.70;99.90
33881;DHT22;20172;47.530;10.256;2022-08-19T00:46:29;17.20;99.90
33881;DHT22;20172;47.530;10.256;2022-08-19T00:48:55;17.30;99.90
33881;DHT22;20172;47.530;10.256;2022-08-19T00:51:22;17.30;99.90
33881;DHT22;20172;47.530;10.256;2022-08-19T00:53:48;17.40;99.90
33881;DHT22;20172;47.530;10.256;2022-08-19T00:56:14;17.50;99.90
33881;DHT22;20172;47.530;10.256;2022-08-19T00:58:40;17.40;99.90
33881;DHT22;20172;47.530;10.256;2022-08-19T01:01:06;17.50;99.90
33881;DHT22;20172;47.530;10.256;2022-08-19T01:03:33;17.60;99.90
33881;DHT22;20172;47.530;10.256;2022-08-19T01:05:58;17.60;99.90
33881;DHT22;20172;47.530;10.256;2022-08-19T01:08:25;17.60;99.90
33881;DHT22;20172;47.530;10.256;2022-08-19T01:10:52;17.60;99.90
33881;DHT22;20172;47.530;10.256;2022-08-19T01:13:19;17.60;99.90
33881;DHT22;20172;47.530;10.256;2022-08-19T01:15:46;17.60;99.90
33881;DHT22;20172;47.530;10.256;2022-08-19T01:18:13;17.70;99.90
33881;DHT22;20172;47.530;10.256;2022-08-19T01:20:40;17.60;99.90
33881;DHT22;20172;47.530;10.256;2022-08-19T01:23:05;17.60;99.90
33881;DHT22;20172;47.530;10.256;2022-08-19T01:25:32;17.60;99.90
33881;DHT22;20172;47.530;10.256;2022-08-19T01:27:59;17.70;99.90
33881;DHT22;20172;47.530;10.256;2022-08-19T01:30:27;17.50;99.90
33881;DHT22;20172;47.530;10.256;2022-08-19T01:32:53;17.40;99.90
33881;DHT22;20172;47.530;10.256;2022-08-19T01:35:19;17.40;99.90
33881;DHT22;20172;47.530;10.256;2022-08-19T01:37:50;17.20;99.90
33881;DHT22;20172;47.530;10.256;2022-08-19T01:40:16;17.00;99.90
33881;DHT22;20172;47.530;10.256;2022-08-19T01:42:42;16.80;99.90
33881;DHT22;20172;47.530;10.256;2022-08-19T01:45:08;16.80;99.90
33881;DHT22;20172;47.530;10.256;2022-08-19T01:47:36;16.90;99.90
33881;DHT22;20172;47.530;10.256;2022-08-19T01:50:04;16.90;99.90
33881;DHT22;20172;47.530;10.256;2022-08-19T01:52:30;17.00;99.90
33881;DHT22;20172;47.530;10.256;2022-08-19T01:54:55;17.20;99.90
33881;DHT22;20172;47.530;10.256;2022-08-19T01:57:21;17.20;99.90
33881;DHT22;20172;47.530;10.256;2022-08-19T01:59:46;17.10;99.90
33881;DHT22;20172;47.530;10.256;2022-08-19T02:02:12;16.90;99.90
33881;DHT22;20172;47.530;10.256;2022-08-19T02:04:38;16.80;99.90
33881;DHT22;20172;47.530;10.256;2022-08-19T02:07:04;16.80;99.90
33881;DHT22;20172;47.530;10.256;2022-08-19T02:09:30;16.80;99.90
33881;DHT22;20172;47.530;10.256;2022-08-19T02:11:56;16.70;99.90
33881;DHT22;20172;47.530;10.256;2022-08-19T02:14:22;16.80;99.90
33881;DHT22;20172;47.530;10.256;2022-08-19T02:16:47;16.90;99.90
33881;DHT22;20172;47.530;10.256;2022-08-19T02:19:13;17.10;99.90
33881;DHT22;20172;47.530;10.256;2022-08-19T02:21:38;17.20;99.90
33881;DHT22;20172;47.530;10.256;2022-08-19T02:24:04;17.20;99.90
33881;DHT22;20172;47.530;10.256;2022-08-19T02:26:29;17.30;99.90
33881;DHT22;20172;47.530;10.256;2022-08-19T02:28:55;17.20;99.90
33881;DHT22;20172;47.530;10.256;2022-08-19T02:31:22;17.20;99.90
33881;DHT22;20172;47.530;10.256;2022-08-19T02:33:48;17.10;99.90
33881;DHT22;20172;47.530;10.256;2022-08-19T02:36:14;17.10;99.90
33881;DHT22;20172;47.530;10.256;2022-08-19T02:38:40;17.20;99.90
33881;DHT22;20172;47.530;10.256;2022-08-19T02:41:08;17.10;99.90
33881;DHT22;20172;47.530;10.256;2022-08-19T02:43:36;17.00;99.90
33881;DHT22;20172;47.530;10.256;2022-08-19T02:46:10;17.00;99.90
33881;DHT22;20172;47.530;10.256;2022-08-19T02:48:36;17.00;99.90
33881;DHT22;20172;47.530;10.256;2022-08-19T02:51:02;17.00;99.90
33881;DHT22;20172;47.530;10.256;2022-08-19T02:53:28;17.00;99.90
33881;DHT22;20172;47.530;10.256;2022-08-19T02:55:53;17.10;99.90
33881;DHT22;20172;47.530;10.256;2022-08-19T02:58:20;17.30;99.90
33881;DHT22;20172;47.530;10.256;2022-08-19T03:00:47;17.40;99.90
33881;DHT22;20172;47.530;10.256;2022-08-19T03:03:14;17.50;99.90
33881;DHT22;20172;47.530;10.256;2022-08-19T03:05:39;17.60;99.90
33881;DHT22;20172;47.530;10.256;2022-08-19T03:08:05;17.60;99.90
33881;DHT22;20172;47.530;10.256;2022-08-19T03:10:31;17.70;99.90
33881;DHT22;20172;47.530;10.256;2022-08-19T03:12:57;17.80;99.90
33881;DHT22;20172;47.530;10.256;2022-08-19T03:15:23;17.80;99.90
33881;DHT22;20172;47.530;10.256;2022-08-19T03:17:48;17.80;99.90
33881;DHT22;20172;47.530;10.256;2022-08-19T03:20:14;17.80;99.90
33881;DHT22;20172;47.530;10.256;2022-08-19T03:22:39;17.70;99.90
33881;DHT22;20172;47.530;10.256;2022-08-19T03:25:05;17.70;99.90
33881;DHT22;20172;47.530;10.256;2022-08-19T03:27:30;17.70;99.90
33881;DHT22;20172;47.530;10.256;2022-08-19T03:29:56;17.60;99.90
33881;DHT22;20172;47.530;10.256;2022-08-19T03:32:22;17.40;99.90
33881;DHT22;20172;47.530;10.256;2022-08-19T03:34:47;17.50;99.90
33881;DHT22;20172;47.530;10.256;2022-08-19T03:37:13;17.50;99.90
33881;DHT22;20172;47.530;10.256;2022-08-19T03:39:39;17.50;99.90
33881;DHT22;20172;47.530;10.256;2022-08-19T03:42:04;17.50;99.90
33881;DHT22;20172;47.530;10.256;2022-08-19T03:44:30;17.50;99.90
33881;DHT22;20172;47.530;10.256;2022-08-19T03:46:58;17.50;99.90
33881;DHT22;20172;47.530;10.256;2022-08-19T03:49:25;17.60;99.90
33881;DHT22;20172;47.530;10.256;2022-08-19T03:51:52;17.30;99.90
33881;DHT22;20172;47.530;10.256;2022-08-19T03:54:19;17.10;99.90
33881;DHT22;20172;47.530;10.256;2022-08-19T03:56:45;17.00;99.90
33881;DHT22;20172;47.530;10.256;2022-08-19T03:59:13;17.00;99.90
33881;DHT22;20172;47.530;10.256;2022-08-19T04:01:39;16.90;99.90
33881;DHT22;20172;47.530;10.256;2022-08-19T04:04:05;16.80;99.90
33881;DHT22;20172;47.530;10.256;2022-08-19T04:06:31;16.80;99.90
33881;DHT22;20172;47.530;10.256;2022-08-19T04:08:58;16.80;99.90
33881;DHT22;20172;47.530;10.256;2022-08-19T04:11:28;16.90;99.90
33881;DHT22;20172;47.530;10.256;2022-08-19T04:13:54;17.00;99.90
33881;DHT22;20172;47.530;10.256;2022-08-19T04:16:20;17.20;99.90
33881;DHT22;20172;47.530;10.256;2022-08-19T04:18:46;17.30;99.90
33881;DHT22;20172;47.530;10.256;2022-08-19T04:21:19;17.10;99.90
33881;DHT22;20172;47.530;10.256;2022-08-19T04:23:45;17.10;99.90
33881;DHT22;20172;47.530;10.256;2022-08-19T04:26:18;17.10;99.90
33881;DHT22;20172;47.530;10.256;2022-08-19T04:28:44;17.20;99.90
33881;DHT22;20172;47.530;10.256;2022-08-19T04:31:13;17.20;99.90
33881;DHT22;20172;47.530;10.256;2022-08-19T04:33:39;17.30;99.90
33881;DHT22;20172;47.530;10.256;2022-08-19T04:36:05;17.30;99.90
33881;DHT22;20172;47.530;10.256;2022-08-19T04:38:31;17.30;99.90
33881;DHT22;20172;47.530;10.256;2022-08-19T04:40:56;17.40;99.90
33881;DHT22;20172;47.530;10.256;2022-08-19T04:43:40;17.50;99.90
33881;DHT22;20172;47.530;10.256;2022-08-19T04:46:06;17.60;99.90
33881;DHT22;20172;47.530;10.256;2022-08-19T04:48:33;17.70;99.90
33881;DHT22;20172;47.530;10.256;2022-08-19T04:50:59;17.70;99.90
33881;DHT22;20172;47.530;10.256;2022-08-19T04:53:29;17.60;99.90
33881;DHT22;20172;47.530;10.256;2022-08-19T04:55:55;17.50;99.90
33881;DHT22;20172;47.530;10.256;2022-08-19T04:58:22;17.60;99.90
33881;DHT22;20172;47.530;10.256;2022-08-19T05:00:47;17.70;99.90
33881;DHT22;20172;47.530;10.256;2022-08-19T05:03:13;17.80;99.90
33881;DHT22;20172;47.530;10.256;2022-08-19T05:05:41;17.80;99.90
33881;DHT22;20172;47.530;10.256;2022-08-19T05:08:06;17.80;99.90
33881;DHT22;20172;47.530;10.256;2022-08-19T05:10:34;17.90;99.90
33881;DHT22;20172;47.530;10.256;2022-08-19T05:13:00;17.80;99.90
33881;DHT22;20172;47.530;10.256;2022-08-19T05:15:26;18.00;99.90
33881;DHT22;20172;47.530;10.256;2022-08-19T05:17:51;18.10;99.90
33881;DHT22;20172;47.530;10.256;2022-08-19T05:20:37;18.10;99.90
33881;DHT22;20172;47.530;10.256;2022-08-19T05:23:21;18.20;99.90
33881;DHT22;20172;47.530;10.256;2022-08-19T05:25:47;18.30;99.90
33881;DHT22;20172;47.530;10.256;2022-08-19T05:28:12;18.30;99.90
33881;DHT22;20172;47.530;10.256;2022-08-19T05:30:38;18.40;99.90
33881;DHT22;20172;47.530;10.256;2022-08-19T05:33:05;18.60;99.90
33881;DHT22;20172;47.530;10.256;2022-08-19T05:35:31;18.70;99.90
33881;DHT22;20172;47.530;10.256;2022-08-19T05:37:57;18.80;99.90
33881;DHT22;20172;47.530;10.256;2022-08-19T05:40:22;19.00;99.90
33881;DHT22;20172;47.530;10.256;2022-08-19T05:42:48;19.10;99.90
33881;DHT22;20172;47.530;10.256;2022-08-19T05:45:14;19.10;99.90
33881;DHT22;20172;47.530;10.256;2022-08-19T05:47:40;19.10;99.90
33881;DHT22;20172;47.530;10.256;2022-08-19T05:50:06;19.10;99.90
33881;DHT22;20172;47.530;10.256;2022-08-19T05:52:31;19.10;99.90
33881;DHT22;20172;47.530;10.256;2022-08-19T05:54:57;19.10;99.90
33881;DHT22;20172;47.530;10.256;2022-08-19T05:57:23;19.10;99.90
33881;DHT22;20172;47.530;10.256;2022-08-19T05:59:49;19.00;99.90
33881;DHT22;20172;47.530;10.256;2022-08-19T06:02:16;19.00;99.90
33881;DHT22;20172;47.530;10.256;2022-08-19T06:04:41;18.90;99.90
33881;DHT22;20172;47.530;10.256;2022-08-19T06:07:10;18.90;99.90
33881;DHT22;20172;47.530;10.256;2022-08-19T06:09:35;18.90;99.90
33881;DHT22;20172;47.530;10.256;2022-08-19T06:12:02;18.80;99.90
33881;DHT22;20172;47.530;10.256;2022-08-19T06:14:30;18.80;99.90
33881;DHT22;20172;47.530;10.256;2022-08-19T06:16:56;18.60;99.90
33881;DHT22;20172;47.530;10.256;2022-08-19T06:19:22;18.60;99.90
33881;DHT22;20172;47.530;10.256;2022-08-19T06:21:50;18.70;99.90
33881;DHT22;20172;47.530;10.256;2022-08-19T06:24:17;18.70;99.90
33881;DHT22;20172;47.530;10.256;2022-08-19T06:26:44;18.90;99.90
33881;DHT22;20172;47.530;10.256;2022-08-19T06:29:11;19.10;99.90
33881;DHT22;20172;47.530;10.256;2022-08-19T06:31:40;19.10;99.90
33881;DHT22;20172;47.530;10.256;2022-08-19T06:34:06;19.20;99.90
33881;DHT22;20172;47.530;10.256;2022-08-19T06:36:36;19.20;99.90
33881;DHT22;20172;47.530;10.256;2022-08-19T06:39:06;19.10;99.90
33881;DHT22;20172;47.530;10.256;2022-08-19T06:41:34;19.10;99.90
33881;DHT22;20172;47.530;10.256;2022-08-19T06:44:00;19.10;99.90
33881;DHT22;20172;47.530;10.256;2022-08-19T06:46:25;19.10;99.90
33881;DHT22;20172;47.530;10.256;2022-08-19T06:48:51;19.00;99.90
33881;DHT22;20172;47.530;10.256;2022-08-19T06:51:18;19.00;99.90
33881;DHT22;20172;47.530;10.256;2022-08-19T06:53:48;19.00;99.90
33881;DHT22;20172;47.530;10.256;2022-08-19T06:56:14;18.90;99.90
33881;DHT22;20172;47.530;10.256;2022-08-19T06:58:40;19.00;99.90
33881;DHT22;20172;47.530;10.256;2022-08-19T07:01:06;18.90;99.90
33881;DHT22;20172;47.530;10.256;2022-08-19T07:03:32;18.90;99.90
33881;DHT22;20172;47.530;10.256;2022-08-19T07:06:11;18.90;99.90
33881;DHT22;20172;47.530;10.256;2022-08-19T07:08:38;18.80;99.90
33881;DHT22;20172;47.530;10.256;2022-08-19T07:11:06;18.80;99.90
33881;DHT22;20172;47.530;10.256;2022-08-19T07:13:32;18.90;99.90
33881;DHT22;20172;47.530;10.256;2022-08-19T07:16:03;18.80;99.90
33881;DHT22;20172;47.530;10.256;2022-08-19T07:18:28;18.80;99.90
33881;DHT22;20172;47.530;10.256;2022-08-19T07:21:02;18.80;99.90
33881;DHT22;20172;47.530;10.256;2022-08-19T07:23:27;18.80;99.90
33881;DHT22;20172;47.530;10.256;2022-08-19T07:25:53;18.80;99.90
33881;DHT22;20172;47.530;10.256;2022-08-19T07:28:18;18.90;99.90
33881;DHT22;20172;47.530;10.256;2022-08-19T07:30:44;18.80;99.90
33881;DHT22;20172;47.530;10.256;2022-08-19T07:33:09;18.70;99.90
33881;DHT22;20172;47.530;10.256;2022-08-19T07:35:35;18.60;99.90
33881;DHT22;20172;47.530;10.256;2022-08-19T07:38:00;18.70;99.90
33881;DHT22;20172;47.530;10.256;2022-08-19T07:40:28;18.60;99.90
33881;DHT22;20172;47.530;10.256;2022-08-19T07:42:54;18.60;99.90
33881;DHT22;20172;47.530;10.256;2022-08-19T07:45:19;18.70;99.90
33881;DHT22;20172;47.530;10.256;2022-08-19T07:47:45;18.90;99.90
33881;DHT22;20172;47.530;10.256;2022-08-19T07:50:11;19.10;99.90
33881;DHT22;20172;47.530;10.256;2022-08-19T07:52:36;19.30;99.90
33881;DHT22;20172;47.530;10.256;2022-08-19T07:55:05;19.40;99.90
33881;DHT22;20172;47.530;10.256;2022-08-19T07:57:31;19.60;99.90
33881;DHT22;20172;47.530;10.256;2022-08-19T07:59:56;19.60;99.90
33881;DHT22;20172;47.530;10.256;2022-08-19T08:02:22;19.70;99.90
33881;DHT22;20172;47.530;10.256;2022-08-19T08:04:47;19.80;99.90
33881;DHT22;20172;47.530;10.256;2022-08-19T08:07:31;19.90;99.90
33881;DHT22;20172;47.530;10.256;2022-08-19T08:10:15;19.90;99.90
33881;DHT22;20172;47.530;10.256;2022-08-19T08:12:41;20.00;99.90
33881;DHT22;20172;47.530;10.256;2022-08-19T08:15:09;20.00;99.90
33881;DHT22;20172;47.530;10.256;2022-08-19T08:17:35;20.00;99.90
33881;DHT22;20172;47.530;10.256;2022-08-19T08:20:03;19.90;99.90
33881;DHT22;20172;47.530;10.256;2022-08-19T08:22:31;19.80;99.90
33881;DHT22;20172;47.530;10.256;2022-08-19T08:25:16;19.80;99.90
33881;DHT22;20172;47.530;10.256;2022-08-19T08:27:44;19.70;99.90
33881;DHT22;20172;47.530;10.256;2022-08-19T08:30:15;19.60;99.90
33881;DHT22;20172;47.530;10.256;2022-08-19T08:32:41;19.40;99.90
33881;DHT22;20172;47.530;10.256;2022-08-19T08:35:09;19.10;99.90
33881;DHT22;20172;47.530;10.256;2022-08-19T08:37:35;19.10;99.90
33881;DHT22;20172;47.530;10.256;2022-08-19T08:40:08;18.80;99.90
33881;DHT22;20172;47.530;10.256;2022-08-19T08:42:39;18.80;99.90
33881;DHT22;20172;47.530;10.256;2022-08-19T08:45:12;18.80;99.90
33881;DHT22;20172;47.530;10.256;2022-08-19T08:47:40;18.60;99.90
33881;DHT22;20172;47.530;10.256;2022-08-19T08:50:14;18.60;99.90
33881;DHT22;20172;47.530;10.256;2022-08-19T08:52:43;18.50;99.90
33881;DHT22;20172;47.530;10.256;2022-08-19T08:55:14;18.30;99.90
33881;DHT22;20172;47.530;10.256;2022-08-19T08:57:45;18.20;99.90
33881;DHT22;20172;47.530;10.256;2022-08-19T09:00:15;18.30;99.90
33881;DHT22;20172;47.530;10.256;2022-08-19T09:02:42;18.50;99.90
33881;DHT22;20172;47.530;10.256;2022-08-19T09:05:09;18.70;99.90
33881;DHT22;20172;47.530;10.256;2022-08-19T09:07:40;18.50;99.90
33881;DHT22;20172;47.530;10.256;2022-08-19T09:10:16;18.40;99.90
33881;DHT22;20172;47.530;10.256;2022-08-19T09:15:13;18.10;99.90
33881;DHT22;20172;47.530;10.256;2022-08-19T09:17:39;18.10;99.90
33881;DHT22;20172;47.530;10.256;2022-08-19T09:20:10;18.10;99.90
33881;DHT22;20172;47.530;10.256;2022-08-19T09:22:39;18.20;99.90
33881;DHT22;20172;47.530;10.256;2022-08-19T09:25:06;18.20;99.90
33881;DHT22;20172;47.530;10.256;2022-08-19T09:27:31;18.40;99.90
33881;DHT22;20172;47.530;10.256;2022-08-19T09:29:57;18.50;99.90
33881;DHT22;20172;47.530;10.256;2022-08-19T09:32:23;18.60;99.90
33881;DHT22;20172;47.530;10.256;2022-08-19T09:34:50;18.60;99.90
33881;DHT22;20172;47.530;10.256;2022-08-19T09:37:18;18.50;99.90
33881;DHT22;20172;47.530;10.256;2022-08-19T09:39:44;18.50;99.90
33881;DHT22;20172;47.530;10.256;2022-08-19T09:42:09;18.50;99.90
33881;DHT22;20172;47.530;10.256;2022-08-19T09:44:40;18.60;99.90
33881;DHT22;20172;47.530;10.256;2022-08-19T09:47:06;18.70;99.90
33881;DHT22;20172;47.530;10.256;2022-08-19T09:49:33;18.80;99.90
33881;DHT22;20172;47.530;10.256;2022-08-19T09:51:58;18.90;99.90
33881;DHT22;20172;47.530;10.256;2022-08-19T09:54:24;18.90;99.90
33881;DHT22;20172;47.530;10.256;2022-08-19T09:56:50;18.90;99.90
33881;DHT22;20172;47.530;10.256;2022-08-19T09:59:15;18.90;99.90
33881;DHT22;20172;47.530;10.256;2022-08-19T10:01:41;18.70;99.90
33881;DHT22;20172;47.530;10.256;2022-08-19T10:04:06;18.70;99.90
33881;DHT22;20172;47.530;10.256;2022-08-19T10:06:36;18.80;99.90
33881;DHT22;20172;47.530;10.256;2022-08-19T10:09:03;18.80;99.90
33881;DHT22;20172;47.530;10.256;2022-08-19T10:11:33;18.90;99.90
33881;DHT22;20172;47.530;10.256;2022-08-19T10:14:00;18.90;99.90
33881;DHT22;20172;47.530;10.256;2022-08-19T10:16:26;19.00;99.90
33881;DHT22;20172;47.530;10.256;2022-08-19T10:18:52;19.10;99.90
33881;DHT22;20172;47.530;10.256;2022-08-19T10:21:19;19.10;99.90
33881;DHT22;20172;47.530;10.256;2022-08-19T10:23:46;19.00;99.90
33881;DHT22;20172;47.530;10.256;2022-08-19T10:26:13;18.90;99.90
33881;DHT22;20172;47.530;10.256;2022-08-19T10:28:39;18.90;99.90
33881;DHT22;20172;47.530;10.256;2022-08-19T10:31:09;18.70;99.90
33881;DHT22;20172;47.530;10.256;2022-08-19T10:33:35;18.50;99.90
33881;DHT22;20172;47.530;10.256;2022-08-19T10:36:03;18.50;99.90
33881;DHT22;20172;47.530;10.256;2022-08-19T10:38:29;18.40;99.90
33881;DHT22;20172;47.530;10.256;2022-08-19T10:40:55;18.60;99.90
33881;DHT22;20172;47.530;10.256;2022-08-19T10:43:20;18.40;99.90
33881;DHT22;20172;47.530;10.256;2022-08-19T10:45:53;18.20;99.90
33881;DHT22;20172;47.530;10.256;2022-08-19T10:48:21;18.00;99.90
33881;DHT22;20172;47.530;10.256;2022-08-19T10:50:47;17.90;99.90
33881;DHT22;20172;47.530;10.256;2022-08-19T10:53:31;17.80;99.90
33881;DHT22;20172;47.530;10.256;2022-08-19T10:55:56;17.70;99.90
33881;DHT22;20172;47.530;10.256;2022-08-19T10:58:40;17.90;99.90
33881;DHT22;20172;47.530;10.256;2022-08-19T11:01:06;18.10;99.90
33881;DHT22;20172;47.530;10.256;2022-08-19T11:03:32;18.40;99.90
33881;DHT22;20172;47.530;10.256;2022-08-19T11:05:59;18.60;99.90
33881;DHT22;20172;47.530;10.256;2022-08-19T11:08:24;18.80;99.90
33881;DHT22;20172;47.530;10.256;2022-08-19T11:10:52;18.90;99.90
33881;DHT22;20172;47.530;10.256;2022-08-19T11:13:24;19.00;99.90
33881;DHT22;20172;47.530;10.256;2022-08-19T11:15:56;19.20;99.90
33881;DHT22;20172;47.530;10.256;2022-08-19T11:18:22;19.30;99.90
33881;DHT22;20172;47.530;10.256;2022-08-19T11:20:48;19.40;99.90
33881;DHT22;20172;47.530;10.256;2022-08-19T11:23:14;19.50;99.90
33881;DHT22;20172;47.530;10.256;2022-08-19T11:25:39;19.40;99.90
33881;DHT22;20172;47.530;10.256;2022-08-19T11:28:05;19.40;99.90
33881;DHT22;20172;47.530;10.256;2022-08-19T11:30:30;19.30;99.90
33881;DHT22;20172;47.530;10.256;2022-08-19T11:32:57;19.20;99.90
33881;DHT22;20172;47.530;10.256;2022-08-19T11:35:22;19.20;99.90
33881;DHT22;20172;47.530;10.256;2022-08-19T11:37:48;19.10;99.90
33881;DHT22;20172;47.530;10.256;2022-08-19T11:40:14;19.10;99.90
33881;DHT22;20172;47.530;10.256;2022-08-19T11:42:41;19.10;99.90
33881;DHT22;20172;47.530;10.256;2022-08-19T11:45:22;19.10;99.90
33881;DHT22;20172;47.530;10.256;2022-08-19T11:47:48;19.30;99.90
33881;DHT22;20172;47.530;10.256;2022-08-19T11:50:14;19.30;99.90
33881;DHT22;20172;47.530;10.256;2022-08-19T11:52:40;19.10;99.90
33881;DHT22;20172;47.530;10.256;2022-08-19T11:55:06;18.90;99.90
33881;DHT22;20172;47.530;10.256;2022-08-19T11:57:31;19.00;99.90
33881;DHT22;20172;47.530;10.256;2022-08-19T11:59:57;19.00;99.90
33881;DHT22;20172;47.530;10.256;2022-08-19T12:02:23;19.00;99.90
33881;DHT22;20172;47.530;10.256;2022-08-19T12:04:48;19.30;99.90
33881;DHT22;20172;47.530;10.256;2022-08-19T12:07:14;19.20;99.90
33881;DHT22;20172;47.530;10.256;2022-08-19T12:09:40;19.00;99.90
33881;DHT22;20172;47.530;10.256;2022-08-19T12:12:05;18.80;99.90
33881;DHT22;20172;47.530;10.256;2022-08-19T12:14:31;18.90;99.90
33881;DHT22;20172;47.530;10.256;2022-08-19T12:16:57;19.20;99.90
33881;DHT22;20172;47.530;10.256;2022-08-19T12:19:23;19.40;99.90
33881;DHT22;20172;47.530;10.256;2022-08-19T12:21:50;19.40;99.90
33881;DHT22;20172;47.530;10.256;2022-08-19T12:24:16;19.50;99.90
33881;DHT22;20172;47.530;10.256;2022-08-19T12:26:48;19.70;99.90
33881;DHT22;20172;47.530;10.256;2022-08-19T12:29:14;19.80;99.90
33881;DHT22;20172;47.530;10.256;2022-08-19T12:31:40;19.80;99.90
33881;DHT22;20172;47.530;10.256;2022-08-19T12:34:05;19.80;99.90
33881;DHT22;20172;47.530;10.256;2022-08-19T12:36:31;19.90;99.90
33881;DHT22;20172;47.530;10.256;2022-08-19T12:38:57;19.90;99.90
33881;DHT22;20172;47.530;10.256;2022-08-19T12:41:23;19.80;99.90
33881;DHT22;20172;47.530;10.256;2022-08-19T12:43:49;19.80;99.90
33881;DHT22;20172;47.530;10.256;2022-08-19T12:46:15;19.60;99.90
33881;DHT22;20172;47.530;10.256;2022-08-19T12:48:40;19.60;99.90
33881;DHT22;20172;47.530;10.256;2022-08-19T12:51:12;19.60;99.90
33881;DHT22;20172;47.530;10.256;2022-08-19T12:53:38;19.60;99.90
33881;DHT22;20172;47.530;10.256;2022-08-19T12:56:04;19.60;99.90
33881;DHT22;20172;47.530;10.256;2022-08-19T12:58:30;19.60;99.90
33881;DHT22;20172;47.530;10.256;2022-08-19T13:00:56;19.30;99.90
33881;DHT22;20172;47.530;10.256;2022-08-19T13:03:21;19.30;99.90
33881;DHT22;20172;47.530;10.256;2022-08-19T13:05:54;19.30;99.90
33881;DHT22;20172;47.530;10.256;2022-08-19T13:08:20;19.40;99.90
33881;DHT22;20172;47.530;10.256;2022-08-19T13:10:45;19.40;99.90
33881;DHT22;20172;47.530;10.256;2022-08-19T13:13:12;19.40;99.90
33881;DHT22;20172;47.530;10.256;2022-08-19T13:15:38;19.50;99.90
33881;DHT22;20172;47.530;10.256;2022-08-19T13:18:08;19.50;99.90
33881;DHT22;20172;47.530;10.256;2022-08-19T13:20:35;19.40;99.90
33881;DHT22;20172;47.530;10.256;2022-08-19T13:23:00;19.30;99.90
33881;DHT22;20172;47.530;10.256;2022-08-19T13:25:26;19.30;99.90
33881;DHT22;20172;47.530;10.256;2022-08-19T13:27:52;19.30;99.90
33881;DHT22;20172;47.530;10.256;2022-08-19T13:30:18;19.20;99.90
33881;DHT22;20172;47.530;10.256;2022-08-19T13:33:03;19.10;99.90
33881;DHT22;20172;47.530;10.256;2022-08-19T13:35:40;19.00;99.90
33881;DHT22;20172;47.530;10.256;2022-08-19T13:38:07;19.10;99.90
33881;DHT22;20172;47.530;10.256;2022-08-19T13:40:32;19.10;99.90
33881;DHT22;20172;47.530;10.256;2022-08-19T13:43:02;19.10;99.90
33881;DHT22;20172;47.530;10.256;2022-08-19T13:45:28;19.20;99.90
33881;DHT22;20172;47.530;10.256;2022-08-19T13:47:55;19.20;99.90
33881;DHT22;20172;47.530;10.256;2022-08-19T13:50:25;19.30;99.90
33881;DHT22;20172;47.530;10.256;2022-08-19T13:52:52;19.30;99.90
33881;DHT22;20172;47.530;10.256;2022-08-19T13:55:18;19.30;99.90
33881;DHT22;20172;47.530;10.256;2022-08-19T13:57:44;19.30;99.90
33881;DHT22;20172;47.530;10.256;2022-08-19T14:00:15;19.40;99.90
33881;DHT22;20172;47.530;10.256;2022-08-19T14:02:43;19.30;99.90
33881;DHT22;20172;47.530;10.256;2022-08-19T14:05:09;19.40;99.90
33881;DHT22;20172;47.530;10.256;2022-08-19T14:07:35;19.40;99.90
33881;DHT22;20172;47.530;10.256;2022-08-19T14:10:02;19.40;99.90
33881;DHT22;20172;47.530;10.256;2022-08-19T14:12:27;19.50;99.90
33881;DHT22;20172;47.530;10.256;2022-08-19T14:14:53;19.50;99.90
33881;DHT22;20172;47.530;10.256;2022-08-19T14:17:19;19.50;99.90
33881;DHT22;20172;47.530;10.256;2022-08-19T14:19:44;19.40;99.90
33881;DHT22;20172;47.530;10.256;2022-08-19T14:22:10;19.40;99.90
33881;DHT22;20172;47.530;10.256;2022-08-19T14:24:37;19.30;99.90
33881;DHT22;20172;47.530;10.256;2022-08-19T14:27:04;19.30;99.90
33881;DHT22;20172;47.530;10.256;2022-08-19T14:29:29;19.20;99.90
33881;DHT22;20172;47.530;10.256;2022-08-19T14:31:55;19.50;99.90
33881;DHT22;20172;47.530;10.256;2022-08-19T14:34:27;19.50;99.90
33881;DHT22;20172;47.530;10.256;2022-08-19T14:36:52;19.40;99.90
33881;DHT22;20172;47.530;10.256;2022-08-19T14:39:18;19.30;99.90
33881;DHT22;20172;47.530;10.256;2022-08-19T14:41:43;19.30;99.90
33881;DHT22;20172;47.530;10.256;2022-08-19T14:44:10;19.20;99.90
33881;DHT22;20172;47.530;10.256;2022-08-19T14:46:38;19.30;99.90
33881;DHT22;20172;47.530;10.256;2022-08-19T14:49:03;19.30;99.90
33881;DHT22;20172;47.530;10.256;2022-08-19T14:51:29;19.10;99.90
33881;DHT22;20172;47.530;10.256;2022-08-19T14:53:55;19.10;99.90
33881;DHT22;20172;47.530;10.256;2022-08-19T14:56:24;19.00;99.90
33881;DHT22;20172;47.530;10.256;2022-08-19T14:58:50;18.80;99.90
33881;DHT22;20172;47.530;10.256;2022-08-19T15:01:16;18.80;99.90
33881;DHT22;20172;47.530;10.256;2022-08-19T15:03:42;18.80;99.90
33881;DHT22;20172;47.530;10.256;2022-08-19T15:06:08;18.80;99.90
33881;DHT22;20172;47.530;10.256;2022-08-19T15:08:34;18.80;99.90
33881;DHT22;20172;47.530;10.256;2022-08-19T15:11:02;18.80;99.90
33881;DHT22;20172;47.530;10.256;2022-08-19T15:13:28;18.80;99.90
33881;DHT22;20172;47.530;10.256;2022-08-19T15:15:57;18.80;99.90
33881;DHT22;20172;47.530;10.256;2022-08-19T15:18:22;18.80;99.90
33881;DHT22;20172;47.530;10.256;2022-08-19T15:20:48;18.80;99.90